sensor_id;sensor_type;location;lat;lon;timestamp;P1;durP1;ratioP1;P2;durP2;ratioP2
76693;SDS011;65625;52.136;5.424;2022-12-10T00:01:39;42.08;;;15.75;;
76693;SDS011;65625;52.136;5.424;2022-12-10T00:04:06;41.22;;;14.60;;
76693;SDS011;65625;52.136;5.424;2022-12-10T00:06:33;39.78;;;14.25;;
76693;SDS011;65625;52.136;5.424;2022-12-10T00:09:02;38.35;;;15.55;;
76693;SDS011;65625;52.136;5.424;2022-12-10T00:11:29;40.33;;;15.32;;
76693;SDS011;65625;52.136;5.424;2022-12-10T00:13:56;36.75;;;13.10;;
76693;SDS011;65625;52.136;5.424;2022-12-10T00:16:24;35.80;;;15.32;;
76693;SDS011;65625;52.136;5.424;2022-12-10T00:18:52;35.47;;;14.13;;
76693;SDS011;65625;52.136;5.424;2022-12-10T00:21:20;38.42;;;15.85;;
76693;SDS011;65625;52.136;5.424;2022-12-10T00:23:49;38.35;;;14.98;;
76693;SDS011;65625;52.136;5.424;2022-12-10T00:29:09;36.78;;;14.55;;
76693;SDS011;65625;52.136;5.424;2022-12-10T00:31:37;38.00;;;14.70;;
76693;SDS011;65625;52.136;5.424;2022-12-10T00:34:06;45.83;;;16.88;;
76693;SDS011;65625;52.136;5.424;2022-12-10T00:36:38;47.40;;;16.77;;
76693;SDS011;65625;52.136;5.424;2022-12-10T00:39:12;41.75;;;14.32;;
76693;SDS011;65625;52.136;5.424;2022-12-10T00:41:39;42.33;;;16.33;;
76693;SDS011;65625;52.136;5.424;2022-12-10T00:44:06;47.60;;;17.55;;
76693;SDS011;65625;52.136;5.424;2022-12-10T00:46:32;45.78;;;15.02;;
76693;SDS011;65625;52.136;5.424;2022-12-10T00:49:00;38.83;;;15.32;;
76693;SDS011;65625;52.136;5.424;2022-12-10T00:51:27;48.80;;;16.35;;
76693;SDS011;65625;52.136;5.424;2022-12-10T00:53:54;46.13;;;16.33;;
76693;SDS011;65625;52.136;5.424;2022-12-10T00:56:26;43.75;;;16.00;;
76693;SDS011;65625;52.136;5.424;2022-12-10T00:58:57;49.97;;;18.85;;
76693;SDS011;65625;52.136;5.424;2022-12-10T01:03:52;53.58;;;17.23;;
76693;SDS011;65625;52.136;5.424;2022-12-10T01:06:22;47.42;;;17.02;;
76693;SDS011;65625;52.136;5.424;2022-12-10T01:08:50;50.30;;;17.55;;
76693;SDS011;65625;52.136;5.424;2022-12-10T01:11:19;48.00;;;17.63;;
76693;SDS011;65625;52.136;5.424;2022-12-10T01:13:47;48.85;;;17.55;;
76693;SDS011;65625;52.136;5.424;2022-12-10T01:16:17;48.65;;;16.98;;
76693;SDS011;65625;52.136;5.424;2022-12-10T01:18:45;50.78;;;17.73;;
76693;SDS011;65625;52.136;5.424;2022-12-10T01:21:14;51.13;;;17.55;;
76693;SDS011;65625;52.136;5.424;2022-12-10T01:23:44;57.03;;;19.48;;
76693;SDS011;65625;52.136;5.424;2022-12-10T01:26:14;52.50;;;17.77;;
76693;SDS011;65625;52.136;5.424;2022-12-10T01:28:42;46.95;;;17.80;;
76693;SDS011;65625;52.136;5.424;2022-12-10T01:31:11;55.17;;;17.00;;
76693;SDS011;65625;52.136;5.424;2022-12-10T01:33:45;53.33;;;18.33;;
76693;SDS011;65625;52.136;5.424;2022-12-10T01:36:16;52.55;;;17.30;;
76693;SDS011;65625;52.136;5.424;2022-12-10T01:38:44;49.85;;;17.73;;
76693;SDS011;65625;52.136;5.424;2022-12-10T01:41:13;48.65;;;17.88;;
76693;SDS011;65625;52.136;5.424;2022-12-10T01:46:21;50.35;;;18.00;;
76693;SDS011;65625;52.136;5.424;2022-12-10T01:48:49;46.72;;;17.10;;
76693;SDS011;65625;52.136;5.424;2022-12-10T01:51:16;51.85;;;18.00;;
76693;SDS011;65625;52.136;5.424;2022-12-10T01:53:43;44.78;;;16.30;;
76693;SDS011;65625;52.136;5.424;2022-12-10T01:56:12;50.13;;;18.27;;
76693;SDS011;65625;52.136;5.424;2022-12-10T01:58:41;44.08;;;15.55;;
76693;SDS011;65625;52.136;5.424;2022-12-10T02:15:24;44.67;;;14.60;;
76693;SDS011;65625;52.136;5.424;2022-12-10T02:20:40;47.00;;;16.15;;
76693;SDS011;65625;52.136;5.424;2022-12-10T02:23:10;44.05;;;14.52;;
76693;SDS011;65625;52.136;5.424;2022-12-10T02:25:43;49.90;;;16.40;;
76693;SDS011;65625;52.136;5.424;2022-12-10T02:28:21;48.00;;;14.82;;
76693;SDS011;65625;52.136;5.424;2022-12-10T02:30:57;47.75;;;15.90;;
76693;SDS011;65625;52.136;5.424;2022-12-10T02:33:25;77.35;;;16.27;;
76693;SDS011;65625;52.136;5.424;2022-12-10T02:35:55;42.67;;;14.32;;
76693;SDS011;65625;52.136;5.424;2022-12-10T02:38:32;55.95;;;15.30;;
76693;SDS011;65625;52.136;5.424;2022-12-10T02:41:04;47.10;;;15.35;;
76693;SDS011;65625;52.136;5.424;2022-12-10T02:43:34;46.13;;;14.25;;
76693;SDS011;65625;52.136;5.424;2022-12-10T02:46:02;45.90;;;15.95;;
76693;SDS011;65625;52.136;5.424;2022-12-10T02:48:30;47.47;;;15.25;;
76693;SDS011;65625;52.136;5.424;2022-12-10T02:50:58;50.88;;;16.65;;
76693;SDS011;65625;52.136;5.424;2022-12-10T02:53:25;48.33;;;15.65;;
76693;SDS011;65625;52.136;5.424;2022-12-10T02:56:04;43.72;;;13.52;;
76693;SDS011;65625;52.136;5.424;2022-12-10T03:01:36;36.70;;;14.20;;
76693;SDS011;65625;52.136;5.424;2022-12-10T03:04:34;49.60;;;15.07;;
76693;SDS011;65625;52.136;5.424;2022-12-10T03:07:11;61.20;;;14.88;;
76693;SDS011;65625;52.136;5.424;2022-12-10T03:09:48;49.58;;;16.08;;
76693;SDS011;65625;52.136;5.424;2022-12-10T03:12:25;50.55;;;15.52;;
76693;SDS011;65625;52.136;5.424;2022-12-10T03:15:07;64.47;;;16.55;;
76693;SDS011;65625;52.136;5.424;2022-12-10T03:17:36;42.75;;;14.65;;
76693;SDS011;65625;52.136;5.424;2022-12-10T03:20:09;48.80;;;14.77;;
76693;SDS011;65625;52.136;5.424;2022-12-10T03:22:39;52.78;;;16.80;;
76693;SDS011;65625;52.136;5.424;2022-12-10T03:25:10;40.05;;;13.93;;
76693;SDS011;65625;52.136;5.424;2022-12-10T03:27:40;41.47;;;16.27;;
76693;SDS011;65625;52.136;5.424;2022-12-10T03:30:09;51.40;;;15.35;;
76693;SDS011;65625;52.136;5.424;2022-12-10T03:32:36;43.67;;;14.57;;
76693;SDS011;65625;52.136;5.424;2022-12-10T03:35:03;44.50;;;16.33;;
76693;SDS011;65625;52.136;5.424;2022-12-10T03:37:31;40.88;;;13.23;;
76693;SDS011;65625;52.136;5.424;2022-12-10T03:39:58;46.20;;;13.85;;
76693;SDS011;65625;52.136;5.424;2022-12-10T03:42:25;44.15;;;14.73;;
76693;SDS011;65625;52.136;5.424;2022-12-10T03:44:52;50.92;;;15.82;;
76693;SDS011;65625;52.136;5.424;2022-12-10T03:47:19;62.97;;;16.40;;
76693;SDS011;65625;52.136;5.424;2022-12-10T03:49:46;56.70;;;14.25;;
76693;SDS011;65625;52.136;5.424;2022-12-10T03:52:12;47.80;;;15.55;;
76693;SDS011;65625;52.136;5.424;2022-12-10T03:54:39;64.18;;;16.67;;
76693;SDS011;65625;52.136;5.424;2022-12-10T03:57:06;51.63;;;16.08;;
76693;SDS011;65625;52.136;5.424;2022-12-10T03:59:32;50.42;;;13.57;;
76693;SDS011;65625;52.136;5.424;2022-12-10T04:01:59;44.63;;;13.80;;
76693;SDS011;65625;52.136;5.424;2022-12-10T04:04:25;56.65;;;16.73;;
76693;SDS011;65625;52.136;5.424;2022-12-10T04:06:52;66.60;;;15.63;;
76693;SDS011;65625;52.136;5.424;2022-12-10T04:09:19;48.50;;;14.05;;
76693;SDS011;65625;52.136;5.424;2022-12-10T04:11:46;79.60;;;14.95;;
76693;SDS011;65625;52.136;5.424;2022-12-10T04:14:13;32.90;;;11.75;;
76693;SDS011;65625;52.136;5.424;2022-12-10T04:16:59;35.50;;;12.63;;
76693;SDS011;65625;52.136;5.424;2022-12-10T04:19:26;41.88;;;11.80;;
76693;SDS011;65625;52.136;5.424;2022-12-10T04:21:53;51.00;;;13.88;;
76693;SDS011;65625;52.136;5.424;2022-12-10T04:24:38;57.78;;;12.73;;
76693;SDS011;65625;52.136;5.424;2022-12-10T04:27:27;50.30;;;13.15;;
76693;SDS011;65625;52.136;5.424;2022-12-10T04:29:56;41.33;;;12.95;;
76693;SDS011;65625;52.136;5.424;2022-12-10T04:32:24;47.65;;;13.35;;
76693;SDS011;65625;52.136;5.424;2022-12-10T04:34:52;56.03;;;13.98;;
76693;SDS011;65625;52.136;5.424;2022-12-10T04:37:20;55.03;;;14.77;;
76693;SDS011;65625;52.136;5.424;2022-12-10T04:39:48;66.82;;;13.82;;
76693;SDS011;65625;52.136;5.424;2022-12-10T04:42:15;63.40;;;13.98;;
76693;SDS011;65625;52.136;5.424;2022-12-10T04:44:42;44.65;;;14.57;;
76693;SDS011;65625;52.136;5.424;2022-12-10T04:47:10;60.10;;;15.80;;
76693;SDS011;65625;52.136;5.424;2022-12-10T04:49:37;70.85;;;14.00;;
76693;SDS011;65625;52.136;5.424;2022-12-10T04:52:04;57.05;;;13.88;;
76693;SDS011;65625;52.136;5.424;2022-12-10T04:54:31;45.75;;;14.23;;
76693;SDS011;65625;52.136;5.424;2022-12-10T04:57:04;46.65;;;14.27;;
76693;SDS011;65625;52.136;5.424;2022-12-10T04:59:31;41.47;;;14.32;;
76693;SDS011;65625;52.136;5.424;2022-12-10T05:01:58;57.55;;;15.13;;
76693;SDS011;65625;52.136;5.424;2022-12-10T05:04:24;42.95;;;13.85;;
76693;SDS011;65625;52.136;5.424;2022-12-10T05:06:51;37.90;;;12.68;;
76693;SDS011;65625;52.136;5.424;2022-12-10T05:09:17;56.40;;;14.73;;
76693;SDS011;65625;52.136;5.424;2022-12-10T05:11:44;66.85;;;16.60;;
76693;SDS011;65625;52.136;5.424;2022-12-10T05:14:11;41.22;;;14.25;;
76693;SDS011;65625;52.136;5.424;2022-12-10T05:16:39;55.88;;;16.77;;
76693;SDS011;65625;52.136;5.424;2022-12-10T05:19:06;63.35;;;17.48;;
76693;SDS011;65625;52.136;5.424;2022-12-10T05:21:34;54.45;;;16.70;;
76693;SDS011;65625;52.136;5.424;2022-12-10T05:24:32;57.65;;;15.77;;
76693;SDS011;65625;52.136;5.424;2022-12-10T05:26:59;58.80;;;15.77;;
76693;SDS011;65625;52.136;5.424;2022-12-10T05:29:26;58.72;;;16.52;;
76693;SDS011;65625;52.136;5.424;2022-12-10T05:31:53;54.53;;;17.42;;
76693;SDS011;65625;52.136;5.424;2022-12-10T05:34:19;52.60;;;16.80;;
76693;SDS011;65625;52.136;5.424;2022-12-10T05:36:46;50.85;;;16.90;;
76693;SDS011;65625;52.136;5.424;2022-12-10T05:39:12;71.22;;;17.13;;
76693;SDS011;65625;52.136;5.424;2022-12-10T05:41:39;79.40;;;19.17;;
76693;SDS011;65625;52.136;5.424;2022-12-10T05:44:06;46.58;;;15.32;;
76693;SDS011;65625;52.136;5.424;2022-12-10T05:46:34;48.80;;;16.00;;
76693;SDS011;65625;52.136;5.424;2022-12-10T05:49:02;60.50;;;17.02;;
76693;SDS011;65625;52.136;5.424;2022-12-10T05:51:31;51.45;;;16.90;;
76693;SDS011;65625;52.136;5.424;2022-12-10T05:56:27;48.75;;;15.48;;
76693;SDS011;65625;52.136;5.424;2022-12-10T05:58:56;49.92;;;16.02;;
76693;SDS011;65625;52.136;5.424;2022-12-10T06:01:26;66.75;;;17.10;;
76693;SDS011;65625;52.136;5.424;2022-12-10T06:03:54;65.63;;;16.17;;
76693;SDS011;65625;52.136;5.424;2022-12-10T06:06:30;63.45;;;17.88;;
76693;SDS011;65625;52.136;5.424;2022-12-10T06:09:02;72.55;;;16.65;;
76693;SDS011;65625;52.136;5.424;2022-12-10T06:11:30;56.88;;;15.57;;
76693;SDS011;65625;52.136;5.424;2022-12-10T06:13:57;59.15;;;17.40;;
76693;SDS011;65625;52.136;5.424;2022-12-10T06:16:26;58.85;;;13.98;;
76693;SDS011;65625;52.136;5.424;2022-12-10T06:18:53;70.47;;;13.55;;
76693;SDS011;65625;52.136;5.424;2022-12-10T06:21:21;76.00;;;15.27;;
76693;SDS011;65625;52.136;5.424;2022-12-10T06:23:48;63.88;;;16.05;;
76693;SDS011;65625;52.136;5.424;2022-12-10T06:26:19;61.83;;;15.93;;
76693;SDS011;65625;52.136;5.424;2022-12-10T06:28:49;67.53;;;14.02;;
76693;SDS011;65625;52.136;5.424;2022-12-10T06:31:16;54.10;;;14.73;;
76693;SDS011;65625;52.136;5.424;2022-12-10T06:33:43;38.75;;;12.32;;
76693;SDS011;65625;52.136;5.424;2022-12-10T06:36:10;39.78;;;14.43;;
76693;SDS011;65625;52.136;5.424;2022-12-10T06:38:39;43.10;;;13.25;;
76693;SDS011;65625;52.136;5.424;2022-12-10T06:41:06;42.33;;;13.05;;
76693;SDS011;65625;52.136;5.424;2022-12-10T06:43:34;37.25;;;12.30;;
76693;SDS011;65625;52.136;5.424;2022-12-10T06:46:11;36.72;;;13.02;;
76693;SDS011;65625;52.136;5.424;2022-12-10T06:48:41;46.45;;;12.20;;
76693;SDS011;65625;52.136;5.424;2022-12-10T06:51:08;57.15;;;13.85;;
76693;SDS011;65625;52.136;5.424;2022-12-10T06:53:37;46.00;;;14.02;;
76693;SDS011;65625;52.136;5.424;2022-12-10T06:56:05;39.50;;;14.05;;
76693;SDS011;65625;52.136;5.424;2022-12-10T06:58:32;49.28;;;12.13;;
76693;SDS011;65625;52.136;5.424;2022-12-10T07:01:06;44.22;;;13.32;;
76693;SDS011;65625;52.136;5.424;2022-12-10T07:03:38;40.42;;;13.25;;
76693;SDS011;65625;52.136;5.424;2022-12-10T07:06:05;48.92;;;14.63;;
76693;SDS011;65625;52.136;5.424;2022-12-10T07:08:34;43.45;;;13.05;;
76693;SDS011;65625;52.136;5.424;2022-12-10T07:11:05;53.95;;;13.63;;
76693;SDS011;65625;52.136;5.424;2022-12-10T07:13:33;44.67;;;13.80;;
76693;SDS011;65625;52.136;5.424;2022-12-10T07:16:00;42.60;;;12.63;;
76693;SDS011;65625;52.136;5.424;2022-12-10T07:18:26;44.33;;;13.85;;
76693;SDS011;65625;52.136;5.424;2022-12-10T07:20:53;46.65;;;13.35;;
76693;SDS011;65625;52.136;5.424;2022-12-10T07:23:20;36.05;;;12.05;;
76693;SDS011;65625;52.136;5.424;2022-12-10T07:25:47;34.45;;;12.60;;
76693;SDS011;65625;52.136;5.424;2022-12-10T07:28:14;39.42;;;13.32;;
76693;SDS011;65625;52.136;5.424;2022-12-10T07:30:41;45.53;;;14.23;;
76693;SDS011;65625;52.136;5.424;2022-12-10T07:33:08;46.20;;;13.57;;
76693;SDS011;65625;52.136;5.424;2022-12-10T07:35:34;43.25;;;13.27;;
76693;SDS011;65625;52.136;5.424;2022-12-10T07:38:12;50.75;;;13.48;;
76693;SDS011;65625;52.136;5.424;2022-12-10T07:40:39;52.03;;;14.20;;
76693;SDS011;65625;52.136;5.424;2022-12-10T07:43:05;50.60;;;13.82;;
76693;SDS011;65625;52.136;5.424;2022-12-10T07:45:32;55.13;;;12.65;;
76693;SDS011;65625;52.136;5.424;2022-12-10T07:48:00;44.25;;;14.60;;
76693;SDS011;65625;52.136;5.424;2022-12-10T07:50:27;37.90;;;12.13;;
76693;SDS011;65625;52.136;5.424;2022-12-10T07:52:53;49.30;;;13.95;;
76693;SDS011;65625;52.136;5.424;2022-12-10T07:55:20;46.67;;;13.77;;
76693;SDS011;65625;52.136;5.424;2022-12-10T07:57:46;46.38;;;14.02;;
76693;SDS011;65625;52.136;5.424;2022-12-10T08:00:13;46.05;;;14.00;;
76693;SDS011;65625;52.136;5.424;2022-12-10T08:02:40;49.15;;;14.23;;
76693;SDS011;65625;52.136;5.424;2022-12-10T08:05:07;44.60;;;13.63;;
76693;SDS011;65625;52.136;5.424;2022-12-10T08:07:33;45.17;;;14.23;;
76693;SDS011;65625;52.136;5.424;2022-12-10T08:10:00;36.97;;;12.38;;
76693;SDS011;65625;52.136;5.424;2022-12-10T08:12:27;42.03;;;12.93;;
76693;SDS011;65625;52.136;5.424;2022-12-10T08:14:53;51.15;;;13.45;;
76693;SDS011;65625;52.136;5.424;2022-12-10T08:17:20;58.17;;;14.65;;
76693;SDS011;65625;52.136;5.424;2022-12-10T08:19:46;37.25;;;11.88;;
76693;SDS011;65625;52.136;5.424;2022-12-10T08:22:13;48.85;;;12.07;;
76693;SDS011;65625;52.136;5.424;2022-12-10T08:24:40;60.35;;;13.93;;
76693;SDS011;65625;52.136;5.424;2022-12-10T08:27:06;37.40;;;12.70;;
76693;SDS011;65625;52.136;5.424;2022-12-10T08:29:33;38.63;;;12.77;;
76693;SDS011;65625;52.136;5.424;2022-12-10T08:32:00;53.95;;;13.45;;
76693;SDS011;65625;52.136;5.424;2022-12-10T08:34:26;47.30;;;14.55;;
76693;SDS011;65625;52.136;5.424;2022-12-10T08:36:52;37.30;;;11.88;;
76693;SDS011;65625;52.136;5.424;2022-12-10T08:39:19;44.80;;;13.65;;
76693;SDS011;65625;52.136;5.424;2022-12-10T08:41:46;40.95;;;12.88;;
76693;SDS011;65625;52.136;5.424;2022-12-10T08:44:13;44.30;;;13.07;;
76693;SDS011;65625;52.136;5.424;2022-12-10T08:46:40;41.63;;;14.55;;
76693;SDS011;65625;52.136;5.424;2022-12-10T08:49:06;40.83;;;13.65;;
76693;SDS011;65625;52.136;5.424;2022-12-10T08:51:33;43.72;;;13.02;;
76693;SDS011;65625;52.136;5.424;2022-12-10T08:54:00;41.50;;;13.63;;
76693;SDS011;65625;52.136;5.424;2022-12-10T08:56:26;51.65;;;14.35;;
76693;SDS011;65625;52.136;5.424;2022-12-10T08:58:53;46.97;;;16.05;;
76693;SDS011;65625;52.136;5.424;2022-12-10T09:01:19;57.42;;;14.20;;
76693;SDS011;65625;52.136;5.424;2022-12-10T09:03:46;60.63;;;14.05;;
76693;SDS011;65625;52.136;5.424;2022-12-10T09:06:15;33.03;;;11.52;;
76693;SDS011;65625;52.136;5.424;2022-12-10T09:11:23;47.35;;;11.32;;
76693;SDS011;65625;52.136;5.424;2022-12-10T09:13:55;37.97;;;12.07;;
76693;SDS011;65625;52.136;5.424;2022-12-10T09:16:27;38.30;;;12.88;;
76693;SDS011;65625;52.136;5.424;2022-12-10T09:19:00;32.85;;;11.10;;
76693;SDS011;65625;52.136;5.424;2022-12-10T09:21:27;46.47;;;11.23;;
76693;SDS011;65625;52.136;5.424;2022-12-10T09:23:54;48.40;;;12.60;;
76693;SDS011;65625;52.136;5.424;2022-12-10T09:26:21;39.53;;;11.63;;
76693;SDS011;65625;52.136;5.424;2022-12-10T09:28:48;40.40;;;12.75;;
76693;SDS011;65625;52.136;5.424;2022-12-10T09:31:15;39.80;;;13.00;;
76693;SDS011;65625;52.136;5.424;2022-12-10T09:33:46;37.42;;;11.60;;
76693;SDS011;65625;52.136;5.424;2022-12-10T09:36:15;43.85;;;12.85;;
76693;SDS011;65625;52.136;5.424;2022-12-10T09:38:42;38.58;;;11.98;;
76693;SDS011;65625;52.136;5.424;2022-12-10T09:49:17;42.78;;;10.68;;
76693;SDS011;65625;52.136;5.424;2022-12-10T09:52:06;40.10;;;12.63;;
76693;SDS011;65625;52.136;5.424;2022-12-10T09:54:43;42.08;;;13.20;;
76693;SDS011;65625;52.136;5.424;2022-12-10T09:57:19;41.05;;;11.95;;
76693;SDS011;65625;52.136;5.424;2022-12-10T09:59:50;38.15;;;11.38;;
76693;SDS011;65625;52.136;5.424;2022-12-10T10:04:50;33.53;;;10.60;;
76693;SDS011;65625;52.136;5.424;2022-12-10T10:07:20;40.28;;;11.82;;
76693;SDS011;65625;52.136;5.424;2022-12-10T10:09:48;41.33;;;12.05;;
76693;SDS011;65625;52.136;5.424;2022-12-10T10:12:20;56.67;;;14.05;;
76693;SDS011;65625;52.136;5.424;2022-12-10T10:14:46;47.08;;;11.35;;
76693;SDS011;65625;52.136;5.424;2022-12-10T10:17:18;44.30;;;11.10;;
76693;SDS011;65625;52.136;5.424;2022-12-10T10:19:55;42.80;;;11.95;;
76693;SDS011;65625;52.136;5.424;2022-12-10T10:22:21;49.95;;;13.43;;
76693;SDS011;65625;52.136;5.424;2022-12-10T10:24:48;61.22;;;14.50;;
76693;SDS011;65625;52.136;5.424;2022-12-10T10:27:18;43.35;;;13.27;;
76693;SDS011;65625;52.136;5.424;2022-12-10T10:29:49;46.33;;;12.73;;
76693;SDS011;65625;52.136;5.424;2022-12-10T10:32:24;38.67;;;12.82;;
76693;SDS011;65625;52.136;5.424;2022-12-10T10:34:54;45.70;;;11.90;;
76693;SDS011;65625;52.136;5.424;2022-12-10T10:37:26;32.63;;;9.70;;
76693;SDS011;65625;52.136;5.424;2022-12-10T10:39:55;34.40;;;10.88;;
76693;SDS011;65625;52.136;5.424;2022-12-10T10:42:36;43.03;;;11.98;;
76693;SDS011;65625;52.136;5.424;2022-12-10T10:45:10;37.80;;;12.10;;
76693;SDS011;65625;52.136;5.424;2022-12-10T10:48:09;45.80;;;13.35;;
76693;SDS011;65625;52.136;5.424;2022-12-10T10:50:42;50.88;;;11.73;;
76693;SDS011;65625;52.136;5.424;2022-12-10T10:53:20;58.92;;;12.40;;
76693;SDS011;65625;52.136;5.424;2022-12-10T10:55:50;34.60;;;10.52;;
76693;SDS011;65625;52.136;5.424;2022-12-10T10:58:20;47.08;;;11.15;;
76693;SDS011;65625;52.136;5.424;2022-12-10T11:00:58;37.40;;;11.20;;
76693;SDS011;65625;52.136;5.424;2022-12-10T11:03:28;42.60;;;11.32;;
76693;SDS011;65625;52.136;5.424;2022-12-10T11:05:56;34.90;;;10.20;;
76693;SDS011;65625;52.136;5.424;2022-12-10T11:08:25;40.70;;;11.98;;
76693;SDS011;65625;52.136;5.424;2022-12-10T11:10:58;35.38;;;11.25;;
76693;SDS011;65625;52.136;5.424;2022-12-10T11:13:30;32.75;;;11.07;;
76693;SDS011;65625;52.136;5.424;2022-12-10T11:16:09;40.53;;;11.75;;
76693;SDS011;65625;52.136;5.424;2022-12-10T11:18:40;34.15;;;11.52;;
76693;SDS011;65625;52.136;5.424;2022-12-10T11:23:48;43.95;;;12.73;;
76693;SDS011;65625;52.136;5.424;2022-12-10T11:37:26;39.80;;;11.00;;
76693;SDS011;65625;52.136;5.424;2022-12-10T11:45:19;47.33;;;10.88;;
76693;SDS011;65625;52.136;5.424;2022-12-10T11:47:54;36.30;;;11.45;;
76693;SDS011;65625;52.136;5.424;2022-12-10T11:50:45;30.25;;;9.57;;
76693;SDS011;65625;52.136;5.424;2022-12-10T11:53:19;34.90;;;10.73;;
76693;SDS011;65625;52.136;5.424;2022-12-10T11:56:20;35.65;;;11.48;;
76693;SDS011;65625;52.136;5.424;2022-12-10T11:59:10;32.50;;;10.77;;
76693;SDS011;65625;52.136;5.424;2022-12-10T12:05:07;34.83;;;11.20;;
76693;SDS011;65625;52.136;5.424;2022-12-10T12:11:04;33.35;;;10.63;;
76693;SDS011;65625;52.136;5.424;2022-12-10T12:16:40;35.13;;;11.15;;
76693;SDS011;65625;52.136;5.424;2022-12-10T12:19:13;33.90;;;11.55;;
76693;SDS011;65625;52.136;5.424;2022-12-10T12:21:49;27.83;;;10.35;;
76693;SDS011;65625;52.136;5.424;2022-12-10T12:27:43;38.78;;;10.75;;
76693;SDS011;65625;52.136;5.424;2022-12-10T12:30:04;34.35;;;11.18;;
76693;SDS011;65625;52.136;5.424;2022-12-10T12:32:45;32.50;;;11.48;;
76693;SDS011;65625;52.136;5.424;2022-12-10T12:46:02;34.55;;;11.55;;
76693;SDS011;65625;52.136;5.424;2022-12-10T12:51:52;50.13;;;11.30;;
76693;SDS011;65625;52.136;5.424;2022-12-10T12:54:19;37.83;;;10.50;;
76693;SDS011;65625;52.136;5.424;2022-12-10T12:56:54;33.10;;;12.18;;
76693;SDS011;65625;52.136;5.424;2022-12-10T13:04:42;46.95;;;11.27;;
76693;SDS011;65625;52.136;5.424;2022-12-10T13:09:48;33.00;;;9.93;;
76693;SDS011;65625;52.136;5.424;2022-12-10T13:12:49;31.70;;;9.38;;
76693;SDS011;65625;52.136;5.424;2022-12-10T13:15:21;36.45;;;9.48;;
76693;SDS011;65625;52.136;5.424;2022-12-10T13:23:50;36.35;;;11.55;;
76693;SDS011;65625;52.136;5.424;2022-12-10T13:26:25;41.70;;;11.30;;
76693;SDS011;65625;52.136;5.424;2022-12-10T13:28:54;42.05;;;11.50;;
76693;SDS011;65625;52.136;5.424;2022-12-10T13:31:44;34.47;;;11.15;;
76693;SDS011;65625;52.136;5.424;2022-12-10T13:34:22;47.38;;;11.07;;
76693;SDS011;65625;52.136;5.424;2022-12-10T13:39:52;33.40;;;11.02;;
76693;SDS011;65625;52.136;5.424;2022-12-10T13:42:28;40.22;;;12.15;;
76693;SDS011;65625;52.136;5.424;2022-12-10T13:47:46;40.05;;;12.40;;
76693;SDS011;65625;52.136;5.424;2022-12-10T13:50:44;39.40;;;10.35;;
76693;SDS011;65625;52.136;5.424;2022-12-10T13:55:46;36.90;;;11.23;;
76693;SDS011;65625;52.136;5.424;2022-12-10T13:58:42;52.95;;;10.73;;
76693;SDS011;65625;52.136;5.424;2022-12-10T14:07:07;35.63;;;11.18;;
76693;SDS011;65625;52.136;5.424;2022-12-10T14:09:48;35.15;;;10.82;;
76693;SDS011;65625;52.136;5.424;2022-12-10T14:14:52;45.53;;;11.40;;
76693;SDS011;65625;52.136;5.424;2022-12-10T14:17:31;26.95;;;9.55;;
76693;SDS011;65625;52.136;5.424;2022-12-10T14:20:02;41.63;;;11.85;;
76693;SDS011;65625;52.136;5.424;2022-12-10T14:22:38;44.55;;;12.07;;
76693;SDS011;65625;52.136;5.424;2022-12-10T14:25:12;39.83;;;11.75;;
76693;SDS011;65625;52.136;5.424;2022-12-10T14:27:40;37.63;;;10.75;;
76693;SDS011;65625;52.136;5.424;2022-12-10T14:30:21;36.97;;;11.93;;
76693;SDS011;65625;52.136;5.424;2022-12-10T14:32:50;38.17;;;11.20;;
76693;SDS011;65625;52.136;5.424;2022-12-10T14:35:21;35.85;;;10.63;;
76693;SDS011;65625;52.136;5.424;2022-12-10T14:37:52;37.58;;;10.48;;
76693;SDS011;65625;52.136;5.424;2022-12-10T14:40:27;35.95;;;11.40;;
76693;SDS011;65625;52.136;5.424;2022-12-10T14:43:07;41.25;;;10.40;;
76693;SDS011;65625;52.136;5.424;2022-12-10T14:45:52;40.00;;;10.82;;
76693;SDS011;65625;52.136;5.424;2022-12-10T14:48:22;34.28;;;11.52;;
76693;SDS011;65625;52.136;5.424;2022-12-10T14:50:50;42.50;;;11.57;;
76693;SDS011;65625;52.136;5.424;2022-12-10T14:53:24;39.63;;;12.07;;
76693;SDS011;65625;52.136;5.424;2022-12-10T14:56:04;31.30;;;12.18;;
76693;SDS011;65625;52.136;5.424;2022-12-10T14:58:36;40.92;;;11.15;;
76693;SDS011;65625;52.136;5.424;2022-12-10T15:01:16;40.33;;;11.18;;
76693;SDS011;65625;52.136;5.424;2022-12-10T15:03:48;35.33;;;11.40;;
76693;SDS011;65625;52.136;5.424;2022-12-10T15:06:16;36.42;;;11.15;;
76693;SDS011;65625;52.136;5.424;2022-12-10T15:08:45;39.25;;;10.68;;
76693;SDS011;65625;52.136;5.424;2022-12-10T15:11:15;44.05;;;13.75;;
76693;SDS011;65625;52.136;5.424;2022-12-10T15:13:50;49.20;;;13.25;;
76693;SDS011;65625;52.136;5.424;2022-12-10T15:16:30;42.38;;;12.45;;
76693;SDS011;65625;52.136;5.424;2022-12-10T15:22:37;45.38;;;13.45;;
76693;SDS011;65625;52.136;5.424;2022-12-10T15:24:46;39.03;;;12.50;;
76693;SDS011;65625;52.136;5.424;2022-12-10T15:27:16;41.55;;;12.20;;
76693;SDS011;65625;52.136;5.424;2022-12-10T15:29:50;47.78;;;13.68;;
76693;SDS011;65625;52.136;5.424;2022-12-10T15:32:26;46.00;;;13.15;;
76693;SDS011;65625;52.136;5.424;2022-12-10T15:34:56;42.50;;;11.95;;
76693;SDS011;65625;52.136;5.424;2022-12-10T15:37:26;44.42;;;12.45;;
76693;SDS011;65625;52.136;5.424;2022-12-10T15:39:58;38.97;;;12.07;;
76693;SDS011;65625;52.136;5.424;2022-12-10T15:47:48;31.92;;;10.45;;
76693;SDS011;65625;52.136;5.424;2022-12-10T15:50:15;41.85;;;12.75;;
76693;SDS011;65625;52.136;5.424;2022-12-10T15:52:42;51.22;;;13.02;;
76693;SDS011;65625;52.136;5.424;2022-12-10T15:55:11;42.25;;;11.50;;
76693;SDS011;65625;52.136;5.424;2022-12-10T15:57:40;50.67;;;12.23;;
76693;SDS011;65625;52.136;5.424;2022-12-10T16:00:20;42.80;;;12.82;;
76693;SDS011;65625;52.136;5.424;2022-12-10T16:02:53;41.72;;;12.25;;
76693;SDS011;65625;52.136;5.424;2022-12-10T16:05:41;43.03;;;12.25;;
76693;SDS011;65625;52.136;5.424;2022-12-10T16:08:23;43.97;;;12.80;;
76693;SDS011;65625;52.136;5.424;2022-12-10T16:13:49;50.38;;;14.10;;
76693;SDS011;65625;52.136;5.424;2022-12-10T16:16:19;47.42;;;13.13;;
76693;SDS011;65625;52.136;5.424;2022-12-10T16:18:46;56.95;;;15.52;;
76693;SDS011;65625;52.136;5.424;2022-12-10T16:21:13;42.05;;;13.32;;
76693;SDS011;65625;52.136;5.424;2022-12-10T16:23:39;58.22;;;14.55;;
76693;SDS011;65625;52.136;5.424;2022-12-10T16:26:17;49.60;;;13.13;;
76693;SDS011;65625;52.136;5.424;2022-12-10T16:28:45;50.33;;;14.52;;
76693;SDS011;65625;52.136;5.424;2022-12-10T16:31:15;42.22;;;12.38;;
76693;SDS011;65625;52.136;5.424;2022-12-10T16:33:43;45.97;;;13.75;;
76693;SDS011;65625;52.136;5.424;2022-12-10T16:36:11;47.67;;;15.25;;
76693;SDS011;65625;52.136;5.424;2022-12-10T16:38:38;46.67;;;13.52;;
76693;SDS011;65625;52.136;5.424;2022-12-10T16:43:58;42.80;;;12.48;;
76693;SDS011;65625;52.136;5.424;2022-12-10T16:46:25;47.72;;;11.25;;
76693;SDS011;65625;52.136;5.424;2022-12-10T16:48:51;42.80;;;12.50;;
76693;SDS011;65625;52.136;5.424;2022-12-10T16:51:23;41.95;;;10.50;;
76693;SDS011;65625;52.136;5.424;2022-12-10T16:53:52;44.92;;;11.95;;
76693;SDS011;65625;52.136;5.424;2022-12-10T16:56:18;38.88;;;12.32;;